KGSO/GSO METAR and TAF weather

Enter ICAO airport designator
Station Type Date Time Source
KGSO METAR 2022/01/29 13:54 UTC NOAA

KGSO 291354Z 32007KT 10SM SCT041 SCT120 SCT250 M03/M09 A2994 RMK AO2 SLP146 T10281089


Station Type Date Time Source
KGSO Decoded METAR 2022/01/29 13:54 UTC NOAA

PIEDMONT TRIAD INTERNATIONAL AIRPORT , NC, United States (KGSO) 36-06N 079-57W 275M
Jan 29, 2022 - 08:54 AM EST / 2022.01.29 1354 UTC
Wind: from the NW (320 degrees) at 8 MPH (7 KT):0
Visibility: 10 mile(s):0
Sky conditions: partly cloudy
Temperature: 27.0 F (-2.8 C)
Windchill: 19 F (-7 C):1
Dew Point: 16.0 F (-8.9 C)
Relative Humidity: 62%
Pressure (altimeter): 29.94 in. Hg (1013 hPa)
ob: KGSO 291354Z 32007KT 10SM SCT041 SCT120 SCT250 M03/M09 A2994 RMK AO2 SLP146 T10281089
cycle: 14

Station Type Date Time Source
KGSO TAF 2022/01/29 13:15 UTC NOAA

TAF
AMD KGSO 291313Z 2913/3012 34005KT P6SM BKN040 OVC080
FM291700 34015G25KT P6SM SCT250
FM300200 30006KT P6SM FEW100

Example: see airport list